createdAt,value
2018-12-18T00:00:03.717Z,13.50
2018-12-18T00:02:31.908Z,12.67
2018-12-18T00:05:04.386Z,14.37
2018-12-18T00:07:32.643Z,14.40
2018-12-18T00:10:00.852Z,15.10
2018-12-18T00:12:29.093Z,15.33
2018-12-18T00:14:57.326Z,15.80
2018-12-18T00:17:25.534Z,15.80
2018-12-18T00:19:53.785Z,15.50
2018-12-18T00:22:22.024Z,15.23
2018-12-18T00:24:50.260Z,14.60
2018-12-18T00:27:18.504Z,14.13
2018-12-18T00:29:46.758Z,14.53
2018-12-18T00:32:14.966Z,14.73
2018-12-18T00:34:43.172Z,14.83
2018-12-18T00:37:11.431Z,14.17
2018-12-18T00:39:39.641Z,14.10
2018-12-18T00:42:08.311Z,13.63
2018-12-18T00:44:36.633Z,13.77
2018-12-18T00:47:04.996Z,14.87
2018-12-18T00:49:33.197Z,13.50
2018-12-18T00:52:01.472Z,13.67
2018-12-18T00:54:29.714Z,14.47
2018-12-18T00:56:57.920Z,13.93
2018-12-18T00:59:26.262Z,14.60
2018-12-18T01:02:00.232Z,14.40
2018-12-18T01:04:28.813Z,15.33
2018-12-18T01:06:57.132Z,14.60
2018-12-18T01:09:31.009Z,14.83
2018-12-18T01:11:59.216Z,14.47
2018-12-18T01:14:27.438Z,14.60
2018-12-18T01:16:55.673Z,14.00
2018-12-18T01:19:23.873Z,14.77
2018-12-18T01:21:52.232Z,15.97
2018-12-18T01:24:20.463Z,14.87
2018-12-18T01:26:48.794Z,14.83
2018-12-18T01:29:17.032Z,14.13
2018-12-18T01:31:45.259Z,13.70
2018-12-18T01:34:13.452Z,15.60
2018-12-18T01:36:41.764Z,14.83
2018-12-18T01:39:10.036Z,15.10
2018-12-18T01:41:38.250Z,14.90
2018-12-18T01:44:06.549Z,15.13
2018-12-18T01:46:34.852Z,15.43
2018-12-18T01:49:03.155Z,14.77
2018-12-18T01:51:31.371Z,15.80
2018-12-18T01:53:59.556Z,15.03
2018-12-18T01:56:27.755Z,15.03
2018-12-18T01:58:55.936Z,15.73
2018-12-18T02:01:24.161Z,15.23
2018-12-18T02:03:52.356Z,15.77
2018-12-18T02:06:20.580Z,15.50
2018-12-18T02:08:48.794Z,15.30
2018-12-18T02:11:17.079Z,15.73
2018-12-18T02:13:45.360Z,16.77
2018-12-18T02:16:13.610Z,15.57
2018-12-18T02:18:41.852Z,16.10
2018-12-18T02:21:10.129Z,14.83
2018-12-18T02:23:38.352Z,16.03
2018-12-18T02:26:06.638Z,16.03
2018-12-18T02:28:34.882Z,16.60
2018-12-18T02:31:03.158Z,16.77
2018-12-18T02:33:31.437Z,15.87
2018-12-18T02:35:59.630Z,16.13
2018-12-18T02:38:27.833Z,16.33
2018-12-18T02:40:56.140Z,17.17
2018-12-18T02:43:24.458Z,17.53
2018-12-18T02:45:52.653Z,17.33
2018-12-18T02:48:21.039Z,17.40
2018-12-18T02:50:49.316Z,17.93
2018-12-18T02:53:17.538Z,18.00
2018-12-18T02:55:45.760Z,17.50
2018-12-18T02:58:13.975Z,18.20
2018-12-18T03:00:42.181Z,18.43
2018-12-18T03:03:10.461Z,18.03
2018-12-18T03:05:38.698Z,17.83
2018-12-18T03:08:06.937Z,17.90
2018-12-18T03:10:35.152Z,18.23
2018-12-18T03:13:03.442Z,17.50
2018-12-18T03:15:31.685Z,18.00
2018-12-18T03:18:00.019Z,18.13
2018-12-18T03:20:28.231Z,17.77
2018-12-18T03:22:56.450Z,18.37
2018-12-18T03:25:24.718Z,17.70
2018-12-18T03:27:53.016Z,18.03
2018-12-18T03:30:21.249Z,17.63
2018-12-18T03:32:52.798Z,18.47
2018-12-18T03:35:21.206Z,18.93
2018-12-18T03:37:49.414Z,19.17
2018-12-18T03:40:17.597Z,18.80
2018-12-18T03:42:45.805Z,17.80
2018-12-18T03:45:14.154Z,18.77
2018-12-18T03:47:42.474Z,19.47
2018-12-18T03:50:10.810Z,17.97
2018-12-18T03:52:39.085Z,19.60
2018-12-18T03:55:07.352Z,19.10
2018-12-18T03:57:35.577Z,18.53
2018-12-18T04:00:04.758Z,19.33
2018-12-18T04:02:33.010Z,20.00
2018-12-18T04:05:01.225Z,19.83
2018-12-18T04:07:29.489Z,20.13
2018-12-18T04:09:57.695Z,20.70
2018-12-18T04:12:25.942Z,19.03
2018-12-18T04:14:54.178Z,18.43
2018-12-18T04:17:22.401Z,20.73
2018-12-18T04:19:50.621Z,19.60
2018-12-18T04:22:18.934Z,20.17
2018-12-18T04:24:47.150Z,19.57
2018-12-18T04:27:15.443Z,19.70
2018-12-18T04:29:43.648Z,21.23
2018-12-18T04:32:11.849Z,21.07
2018-12-18T04:34:43.151Z,20.87
2018-12-18T04:37:10.425Z,22.40
2018-12-18T04:39:38.665Z,20.80
2018-12-18T04:42:06.964Z,22.20
2018-12-18T04:44:35.182Z,21.50
2018-12-18T04:47:03.486Z,20.90
2018-12-18T04:49:31.744Z,22.67
2018-12-18T04:52:00.348Z,21.20
2018-12-18T04:54:28.580Z,21.63
2018-12-18T04:56:56.806Z,20.50
2018-12-18T04:59:25.258Z,21.53
2018-12-18T05:01:53.549Z,22.37
2018-12-18T05:04:21.854Z,21.20
2018-12-18T05:06:50.188Z,21.67
2018-12-18T05:09:18.473Z,22.07
2018-12-18T05:11:46.667Z,23.70
2018-12-18T05:14:14.913Z,22.70
2018-12-18T05:16:43.126Z,23.30
2018-12-18T05:19:11.355Z,23.40
2018-12-18T05:21:39.594Z,22.67
2018-12-18T05:24:07.808Z,23.10
2018-12-18T05:26:36.022Z,22.93
2018-12-18T05:29:04.311Z,23.23
2018-12-18T05:31:32.535Z,22.63
2018-12-18T05:34:00.759Z,22.80
2018-12-18T05:36:29.029Z,22.03
2018-12-18T05:38:57.318Z,22.10
2018-12-18T05:41:25.552Z,23.07
2018-12-18T05:43:53.759Z,23.50
2018-12-18T05:46:21.987Z,21.77
2018-12-18T05:48:50.258Z,22.30
2018-12-18T05:51:18.549Z,23.97
2018-12-18T05:53:46.862Z,22.77
2018-12-18T05:56:15.073Z,22.57
2018-12-18T05:58:43.279Z,24.73
2018-12-18T06:01:11.526Z,24.07
2018-12-18T06:03:39.736Z,24.03
2018-12-18T06:06:07.978Z,24.63
2018-12-18T06:08:36.303Z,23.37
2018-12-18T06:11:04.687Z,23.30
2018-12-18T06:13:32.890Z,23.67
2018-12-18T06:16:01.114Z,23.67
2018-12-18T06:18:29.371Z,25.40
2018-12-18T06:20:57.638Z,23.73
2018-12-18T06:23:25.846Z,23.30
2018-12-18T06:25:54.056Z,23.20
2018-12-18T06:28:22.323Z,24.93
2018-12-18T06:30:50.558Z,23.23
2018-12-18T06:33:18.790Z,22.93
2018-12-18T06:35:47.130Z,25.63
2018-12-18T06:38:15.364Z,24.10
2018-12-18T06:40:43.577Z,24.30
2018-12-18T06:43:11.867Z,24.17
2018-12-18T06:45:40.094Z,23.27
2018-12-18T06:48:08.422Z,23.63
2018-12-18T06:50:36.666Z,24.10
2018-12-18T06:53:04.861Z,24.20
2018-12-18T06:55:33.065Z,24.60
2018-12-18T06:58:01.284Z,24.27
2018-12-18T07:00:29.482Z,23.30
2018-12-18T07:02:57.798Z,23.93
2018-12-18T07:05:26.073Z,23.97
2018-12-18T07:07:57.434Z,24.70
2018-12-18T07:10:24.525Z,23.20
2018-12-18T07:12:52.757Z,24.17
2018-12-18T07:15:20.969Z,24.60
2018-12-18T07:17:49.182Z,24.77
2018-12-18T07:20:17.381Z,24.47
2018-12-18T07:22:45.601Z,26.47
2018-12-18T07:25:13.880Z,25.07
2018-12-18T07:27:42.100Z,24.03
2018-12-18T07:30:10.370Z,24.60
2018-12-18T07:32:38.706Z,25.53
2018-12-18T07:35:07.123Z,25.90
2018-12-18T07:37:35.442Z,26.93
2018-12-18T07:40:03.895Z,26.20
2018-12-18T07:42:32.183Z,26.57
2018-12-18T07:45:00.386Z,27.80
2018-12-18T07:47:28.686Z,28.20
2018-12-18T07:49:56.881Z,29.87
2018-12-18T07:52:25.104Z,28.70
2018-12-18T07:54:53.297Z,27.43
2018-12-18T07:57:21.507Z,27.97
2018-12-18T07:59:49.744Z,26.47
2018-12-18T08:02:18.010Z,25.53
2018-12-18T08:04:46.224Z,27.10
2018-12-18T08:07:14.453Z,29.47
2018-12-18T08:09:42.659Z,31.13
2018-12-18T08:12:10.873Z,30.57
2018-12-18T08:14:39.074Z,29.53
2018-12-18T08:17:07.297Z,28.43
2018-12-18T08:19:35.502Z,28.30
2018-12-18T08:22:03.800Z,25.80
2018-12-18T08:24:32.065Z,24.50
2018-12-18T08:27:00.276Z,24.87
2018-12-18T08:29:28.516Z,25.43
2018-12-18T08:31:56.770Z,24.17
2018-12-18T08:34:25.045Z,24.17
2018-12-18T08:36:53.321Z,24.07
2018-12-18T08:39:21.927Z,23.07
2018-12-18T08:41:50.155Z,22.33
2018-12-18T08:44:18.349Z,21.97
2018-12-18T08:46:46.697Z,23.17
2018-12-18T08:49:14.961Z,22.73
2018-12-18T08:51:43.198Z,21.97
2018-12-18T08:54:11.473Z,22.40
2018-12-18T08:56:39.679Z,23.27
2018-12-18T08:59:07.901Z,22.30
2018-12-18T09:01:36.189Z,23.70
2018-12-18T09:04:04.493Z,26.10
2018-12-18T09:06:32.775Z,27.70
2018-12-18T09:09:01.008Z,28.97
2018-12-18T09:11:29.209Z,25.57
2018-12-18T09:13:57.415Z,22.70
2018-12-18T09:16:31.012Z,22.37
2018-12-18T09:18:59.277Z,23.07
2018-12-18T09:21:27.481Z,21.83
2018-12-18T09:23:55.696Z,21.13
2018-12-18T09:26:23.896Z,21.57
2018-12-18T09:28:52.172Z,21.77
2018-12-18T09:31:20.462Z,22.70
2018-12-18T09:33:48.837Z,22.43
2018-12-18T09:36:17.041Z,24.20
2018-12-18T09:38:50.588Z,23.57
2018-12-18T09:41:24.210Z,23.33
2018-12-18T09:43:55.949Z,25.70
2018-12-18T09:46:24.211Z,26.33
2018-12-18T09:48:52.447Z,25.63
2018-12-18T09:51:20.699Z,24.17
2018-12-18T09:53:48.941Z,24.97
2018-12-18T09:56:17.148Z,21.87
2018-12-18T09:58:45.366Z,20.40
2018-12-18T10:01:13.749Z,20.27
2018-12-18T10:03:42.028Z,19.37
2018-12-18T10:06:10.294Z,19.70
2018-12-18T10:08:38.578Z,19.40
2018-12-18T10:11:06.770Z,20.57
2018-12-18T10:13:35.232Z,20.13
2018-12-18T10:16:03.450Z,21.50
2018-12-18T10:18:31.713Z,20.20
2018-12-18T10:20:59.934Z,22.23
2018-12-18T10:23:28.226Z,20.57
2018-12-18T10:25:56.581Z,19.17
2018-12-18T10:28:24.823Z,21.20
2018-12-18T10:30:53.033Z,21.63
2018-12-18T10:33:21.270Z,20.63
2018-12-18T10:35:49.458Z,20.23
2018-12-18T10:38:17.668Z,19.37
2018-12-18T10:40:45.957Z,18.23
2018-12-18T10:43:14.205Z,18.80
2018-12-18T10:45:43.382Z,20.63
2018-12-18T10:48:11.579Z,20.10
2018-12-18T10:50:39.870Z,20.23
2018-12-18T10:53:08.130Z,19.60
2018-12-18T10:55:36.439Z,19.23
2018-12-18T10:58:04.725Z,18.43
2018-12-18T11:00:38.402Z,18.33
2018-12-18T11:03:06.693Z,17.53
2018-12-18T11:05:34.935Z,18.03
2018-12-18T11:08:03.270Z,17.53
2018-12-18T11:10:31.527Z,19.13
2018-12-18T11:13:05.243Z,18.70
2018-12-18T11:15:33.547Z,21.17
2018-12-18T11:18:01.737Z,20.60
2018-12-18T11:20:29.945Z,22.63
2018-12-18T11:22:58.133Z,20.37
2018-12-18T11:25:26.494Z,18.60
2018-12-18T11:27:54.721Z,17.37
2018-12-18T11:30:23.063Z,18.30
2018-12-18T11:32:51.266Z,18.43
2018-12-18T11:35:19.561Z,18.77
2018-12-18T11:37:47.849Z,20.40
2018-12-18T11:40:16.064Z,21.27
2018-12-18T11:42:44.263Z,20.30
2018-12-18T11:45:12.505Z,17.70
2018-12-18T11:47:40.750Z,16.30
2018-12-18T11:50:09.133Z,16.17
2018-12-18T11:52:37.350Z,15.50
2018-12-18T11:55:05.764Z,15.70
2018-12-18T11:57:34.028Z,15.40
2018-12-18T12:00:02.277Z,16.30
2018-12-18T12:02:30.577Z,15.83
2018-12-18T12:04:58.820Z,17.70
2018-12-18T12:07:27.034Z,15.53
2018-12-18T12:09:55.246Z,14.10
2018-12-18T12:12:23.443Z,14.03
2018-12-18T12:14:51.946Z,14.63
2018-12-18T12:17:20.437Z,14.20
2018-12-18T12:19:48.644Z,14.83
2018-12-18T12:22:16.926Z,14.23
2018-12-18T12:24:45.161Z,13.40
2018-12-18T12:27:18.801Z,14.20
2018-12-18T12:29:47.000Z,13.73
2018-12-18T12:32:15.213Z,13.57
2018-12-18T12:34:43.421Z,12.87
2018-12-18T12:37:11.685Z,13.63
2018-12-18T12:39:39.888Z,12.27
2018-12-18T12:42:08.100Z,14.03
2018-12-18T12:44:36.747Z,14.37
2018-12-18T12:47:05.031Z,12.93
2018-12-18T12:49:38.470Z,13.23
2018-12-18T12:52:06.761Z,13.90
2018-12-18T12:54:35.068Z,12.80
2018-12-18T12:57:03.522Z,12.57
2018-12-18T12:59:31.789Z,12.80
2018-12-18T13:02:00.088Z,12.57
2018-12-18T13:04:28.292Z,12.40
2018-12-18T13:06:56.615Z,12.63
2018-12-18T13:09:24.905Z,12.33
2018-12-18T13:11:53.214Z,12.17
2018-12-18T13:14:21.481Z,12.07
2018-12-18T13:16:49.753Z,11.67
2018-12-18T13:19:18.036Z,12.10
2018-12-18T13:21:46.318Z,11.70
2018-12-18T13:24:14.703Z,12.33
2018-12-18T13:26:43.062Z,13.03
2018-12-18T13:29:11.264Z,11.77
2018-12-18T13:31:39.479Z,13.40
2018-12-18T13:34:07.758Z,11.97
2018-12-18T13:36:36.045Z,11.93
2018-12-18T13:39:06.794Z,11.23
2018-12-18T13:41:35.007Z,11.33
2018-12-18T13:44:03.413Z,11.43
2018-12-18T13:46:31.608Z,11.73
2018-12-18T13:48:59.810Z,11.50
2018-12-18T13:51:28.055Z,12.33
2018-12-18T13:53:56.318Z,11.87
2018-12-18T13:56:24.537Z,11.43
2018-12-18T13:58:52.778Z,12.23
2018-12-18T14:01:20.997Z,12.87
2018-12-18T14:03:49.196Z,12.47
2018-12-18T14:06:17.488Z,12.10
2018-12-18T14:08:45.782Z,11.47
2018-12-18T14:11:14.030Z,12.53
2018-12-18T14:13:42.313Z,14.00
2018-12-18T14:16:10.513Z,13.23
2018-12-18T14:18:38.696Z,14.00
2018-12-18T14:21:06.910Z,13.13
2018-12-18T14:23:35.098Z,12.70
2018-12-18T14:26:03.417Z,12.57
2018-12-18T14:28:31.653Z,12.37
2018-12-18T14:30:59.885Z,12.07
2018-12-18T14:33:28.158Z,12.10
2018-12-18T14:35:56.429Z,12.17
2018-12-18T14:38:24.637Z,11.50
2018-12-18T14:40:52.840Z,12.37
2018-12-18T14:43:21.101Z,15.07
2018-12-18T14:45:49.400Z,11.07
2018-12-18T14:48:17.689Z,11.53
2018-12-18T14:50:45.926Z,12.00
2018-12-18T14:53:14.173Z,12.63
2018-12-18T14:55:42.523Z,11.33
2018-12-18T14:58:10.815Z,10.90
2018-12-18T15:00:39.153Z,11.43
2018-12-18T15:03:07.391Z,10.73
2018-12-18T15:05:35.582Z,10.73
2018-12-18T15:08:04.024Z,11.73
2018-12-18T15:10:32.297Z,11.50
2018-12-18T15:13:01.321Z,12.13
2018-12-18T15:15:29.522Z,11.73
2018-12-18T15:17:57.866Z,11.57
2018-12-18T15:20:26.191Z,11.53
2018-12-18T15:22:54.415Z,11.43
2018-12-18T15:25:22.677Z,11.40
2018-12-18T15:27:50.887Z,13.13
2018-12-18T15:30:25.710Z,11.67
2018-12-18T15:32:49.536Z,12.37
2018-12-18T15:35:17.917Z,10.90
2018-12-18T15:37:46.353Z,11.40
2018-12-18T15:40:14.575Z,12.17
2018-12-18T15:42:42.867Z,12.40
2018-12-18T15:45:11.165Z,11.83
2018-12-18T15:47:39.405Z,12.33
2018-12-18T15:50:08.611Z,12.63
2018-12-18T15:52:36.969Z,11.57
2018-12-18T15:55:05.710Z,11.10
2018-12-18T15:57:34.063Z,11.87
2018-12-18T16:00:02.257Z,11.73
2018-12-18T16:02:30.611Z,12.10
2018-12-18T16:04:58.817Z,12.20
2018-12-18T16:07:27.033Z,11.63
2018-12-18T16:09:55.240Z,10.80
2018-12-18T16:12:23.438Z,11.37
2018-12-18T16:14:51.659Z,12.30
2018-12-18T16:17:20.626Z,11.03
2018-12-18T16:19:48.929Z,11.43
2018-12-18T16:22:17.133Z,12.97
2018-12-18T16:24:45.351Z,11.20
2018-12-18T16:27:13.618Z,11.03
2018-12-18T16:29:42.045Z,11.57
2018-12-18T16:32:10.288Z,11.03
2018-12-18T16:34:39.390Z,11.07
2018-12-18T16:37:07.666Z,11.57
2018-12-18T16:39:35.957Z,10.73
2018-12-18T16:42:04.249Z,12.03
2018-12-18T16:44:32.489Z,12.87
2018-12-18T16:47:00.898Z,11.77
2018-12-18T16:49:29.118Z,12.00
2018-12-18T16:51:57.309Z,11.70
2018-12-18T16:54:25.959Z,11.40
2018-12-18T16:56:54.263Z,11.37
2018-12-18T16:59:22.494Z,11.30
2018-12-18T17:01:50.781Z,10.90
2018-12-18T17:04:18.992Z,10.00
2018-12-18T17:06:47.199Z,10.80
2018-12-18T17:09:15.436Z,10.43
2018-12-18T17:11:43.633Z,10.27
2018-12-18T17:14:11.871Z,10.83
2018-12-18T17:16:40.087Z,10.60
2018-12-18T17:19:08.354Z,12.83
2018-12-18T17:21:36.664Z,11.43
2018-12-18T17:24:04.954Z,12.10
2018-12-18T17:26:33.176Z,12.57
2018-12-18T17:29:01.431Z,12.50
2018-12-18T17:31:29.756Z,12.50
2018-12-18T17:33:57.946Z,11.37
2018-12-18T17:36:26.290Z,11.67
2018-12-18T17:38:55.033Z,11.37
2018-12-18T17:41:23.269Z,11.47
2018-12-18T17:43:51.942Z,11.43
2018-12-18T17:46:20.186Z,13.03
2018-12-18T17:48:48.389Z,10.40
2018-12-18T17:51:17.430Z,13.33
2018-12-18T17:53:45.637Z,13.43
2018-12-18T17:56:13.867Z,13.77
2018-12-18T17:58:42.083Z,13.93
2018-12-18T18:01:10.482Z,14.90
2018-12-18T18:03:38.690Z,15.93
2018-12-18T18:06:06.998Z,14.87
2018-12-18T18:08:35.239Z,15.07
2018-12-18T18:11:03.460Z,16.43
2018-12-18T18:13:31.704Z,18.07
2018-12-18T18:15:59.924Z,17.03
2018-12-18T18:18:28.134Z,16.50
2018-12-18T18:20:56.377Z,17.00
2018-12-18T18:23:24.686Z,21.07
2018-12-18T18:25:53.178Z,30.70
2018-12-18T18:28:21.442Z,25.93
2018-12-18T18:30:49.768Z,29.50
2018-12-18T18:33:18.005Z,27.63
2018-12-18T18:35:46.294Z,31.57
2018-12-18T18:38:14.751Z,33.27
2018-12-18T18:40:43.128Z,29.73
2018-12-18T18:43:11.350Z,27.37
2018-12-18T18:45:39.606Z,24.50
2018-12-18T18:48:07.827Z,26.37
2018-12-18T18:50:36.111Z,25.13
2018-12-18T18:53:04.427Z,24.63
2018-12-18T18:55:32.750Z,24.37
2018-12-18T18:58:01.011Z,24.27
2018-12-18T19:00:29.223Z,23.23
2018-12-18T19:02:57.513Z,20.73
2018-12-18T19:05:25.698Z,22.93
2018-12-18T19:07:56.654Z,21.73
2018-12-18T19:10:24.335Z,20.23
2018-12-18T19:12:56.915Z,20.13
2018-12-18T19:15:25.138Z,20.70
2018-12-18T19:17:53.432Z,20.77
2018-12-18T19:20:22.119Z,19.80
2018-12-18T19:22:50.357Z,21.23
2018-12-18T19:25:18.549Z,19.13
2018-12-18T19:27:46.772Z,22.57
2018-12-18T19:30:14.992Z,21.70
2018-12-18T19:32:43.234Z,21.70
2018-12-18T19:35:11.433Z,20.20
2018-12-18T19:37:39.667Z,21.43
2018-12-18T19:40:07.971Z,21.93
2018-12-18T19:42:36.193Z,22.03
2018-12-18T19:45:05.378Z,21.27
2018-12-18T19:47:33.693Z,20.63
2018-12-18T19:50:01.939Z,21.33
2018-12-18T19:52:30.303Z,19.70
2018-12-18T19:54:58.587Z,18.53
2018-12-18T19:57:26.850Z,17.30
2018-12-18T19:59:55.083Z,18.60
2018-12-18T20:02:23.303Z,19.67
2018-12-18T20:04:51.584Z,20.60
2018-12-18T20:07:20.923Z,21.10
2018-12-18T20:09:49.135Z,19.73
2018-12-18T20:12:17.397Z,20.40
2018-12-18T20:14:45.682Z,19.70
2018-12-18T20:17:14.229Z,23.93
2018-12-18T20:19:42.713Z,23.13
2018-12-18T20:22:10.930Z,23.47
2018-12-18T20:24:39.374Z,23.27
2018-12-18T20:27:07.583Z,20.43
2018-12-18T20:29:35.991Z,19.83
2018-12-18T20:32:04.273Z,20.00
2018-12-18T20:34:32.506Z,18.97
2018-12-18T20:37:00.738Z,19.63
2018-12-18T20:39:28.949Z,17.00
2018-12-18T20:41:57.214Z,19.00
2018-12-18T20:44:25.465Z,18.60
2018-12-18T20:46:53.859Z,19.37
2018-12-18T20:49:22.102Z,18.20
2018-12-18T20:51:50.308Z,18.43
2018-12-18T20:54:18.550Z,18.03
2018-12-18T20:56:46.846Z,18.00
2018-12-18T20:59:15.089Z,18.53
2018-12-18T21:01:43.301Z,18.77
2018-12-18T21:04:11.656Z,17.87
2018-12-18T21:06:40.294Z,19.13
2018-12-18T21:09:10.242Z,19.43
2018-12-18T21:11:38.702Z,20.10
2018-12-18T21:14:07.161Z,19.33
2018-12-18T21:16:35.653Z,19.03
2018-12-18T21:19:04.299Z,19.50
2018-12-18T21:21:32.795Z,19.57
2018-12-18T21:24:01.377Z,18.50
2018-12-18T21:26:29.870Z,18.90
2018-12-18T21:28:58.338Z,19.07
2018-12-18T21:31:26.971Z,18.60
2018-12-18T21:33:55.431Z,18.87
2018-12-18T21:36:23.948Z,18.40
2018-12-18T21:38:52.494Z,20.30
2018-12-18T21:41:21.124Z,20.40
2018-12-18T21:43:49.630Z,19.47
2018-12-18T21:46:18.152Z,21.13
2018-12-18T21:48:46.794Z,20.60
2018-12-18T21:51:15.449Z,21.50
2018-12-18T21:53:43.914Z,20.57
2018-12-18T21:56:12.442Z,21.97
2018-12-18T21:58:40.918Z,22.30
2018-12-18T22:01:09.416Z,21.23
2018-12-18T22:03:37.868Z,24.27
2018-12-18T22:06:06.381Z,23.53
2018-12-18T22:08:36.966Z,22.43
2018-12-18T22:11:05.415Z,23.83
2018-12-18T22:13:33.908Z,23.53
2018-12-18T22:16:02.446Z,23.33
2018-12-18T22:18:30.888Z,22.60
2018-12-18T22:21:00.588Z,24.70
2018-12-18T22:23:29.039Z,25.40
2018-12-18T22:25:57.462Z,21.80
2018-12-18T22:28:25.733Z,22.63
2018-12-18T22:30:53.940Z,24.27
2018-12-18T22:33:22.149Z,23.47
2018-12-18T22:35:50.357Z,24.40
2018-12-18T22:38:18.586Z,27.90
2018-12-18T22:40:46.794Z,28.03
2018-12-18T22:43:15.121Z,25.27
2018-12-18T22:45:43.326Z,25.37
2018-12-18T22:48:11.539Z,24.63
2018-12-18T22:50:39.823Z,25.20
2018-12-18T22:53:08.227Z,23.07
2018-12-18T22:55:36.418Z,23.17
2018-12-18T22:58:04.701Z,23.73
2018-12-18T23:00:38.233Z,24.50
2018-12-18T23:03:06.455Z,24.20
2018-12-18T23:05:34.648Z,23.87
2018-12-18T23:08:02.886Z,25.43
2018-12-18T23:10:31.119Z,23.77
2018-12-18T23:13:00.041Z,24.03
2018-12-18T23:15:28.332Z,23.77
2018-12-18T23:17:56.541Z,23.73
2018-12-18T23:20:24.737Z,22.40
2018-12-18T23:22:52.950Z,24.10
2018-12-18T23:25:21.124Z,24.30
2018-12-18T23:27:49.331Z,25.27
2018-12-18T23:30:17.551Z,23.20
2018-12-18T23:32:45.759Z,22.83
2018-12-18T23:35:14.050Z,22.90
2018-12-18T23:37:42.329Z,22.47
2018-12-18T23:40:10.620Z,22.73
2018-12-18T23:42:38.814Z,22.97
2018-12-18T23:45:07.094Z,21.97
2018-12-18T23:47:35.412Z,23.20
2018-12-18T23:50:03.888Z,21.67
2018-12-18T23:52:32.115Z,22.10
2018-12-18T23:55:00.363Z,21.37
2018-12-18T23:57:28.578Z,21.90
2018-12-18T23:59:56.823Z,23.10
